createdAt,value
2022-10-06T00:00:08.377Z,13.23
2022-10-06T00:05:11.621Z,11.90
2022-10-06T00:10:16.268Z,11.20
2022-10-06T00:15:22.207Z,13.18
2022-10-06T00:20:26.683Z,14.47
2022-10-06T00:25:31.353Z,13.20
2022-10-06T00:30:34.636Z,12.30
2022-10-06T00:35:38.234Z,15.15
2022-10-06T00:40:47.507Z,14.27
2022-10-06T00:45:51.001Z,15.98
2022-10-06T00:50:57.563Z,16.48
2022-10-06T00:56:02.259Z,20.17
2022-10-06T01:01:05.801Z,17.38
2022-10-06T01:06:09.578Z,17.52
2022-10-06T01:11:15.262Z,18.07
2022-10-06T01:16:22.655Z,21.40
2022-10-06T01:21:33.664Z,20.70
2022-10-06T01:26:43.268Z,16.73
2022-10-06T01:31:46.765Z,13.73
2022-10-06T01:36:51.245Z,15.70
2022-10-06T01:41:56.358Z,14.37
2022-10-06T01:46:59.740Z,12.57
2022-10-06T01:52:03.742Z,14.40
2022-10-06T01:57:09.597Z,12.77
2022-10-06T02:02:14.285Z,12.63
2022-10-06T02:07:17.732Z,9.48
2022-10-06T02:12:24.482Z,9.60
2022-10-06T02:17:27.983Z,10.07
2022-10-06T02:22:31.377Z,9.87
2022-10-06T02:27:36.084Z,11.63
2022-10-06T02:32:42.600Z,9.15
2022-10-06T02:37:46.817Z,11.43
2022-10-06T02:42:55.247Z,12.20
2022-10-06T02:47:59.456Z,13.00
2022-10-06T02:53:08.705Z,13.13
2022-10-06T02:58:13.522Z,11.65
2022-10-06T03:03:16.921Z,11.93
2022-10-06T03:08:20.265Z,11.75
2022-10-06T03:13:25.003Z,9.68
2022-10-06T04:34:39.465Z,16.08
2022-10-06T04:39:43.046Z,10.18
2022-10-06T04:44:48.434Z,10.13
2022-10-06T04:49:51.987Z,8.17
2022-10-06T04:54:55.611Z,8.13
2022-10-06T05:00:17.830Z,7.72
2022-10-06T05:05:23.242Z,9.00
2022-10-06T05:10:28.532Z,8.90
2022-10-06T05:15:34.309Z,8.17
2022-10-06T05:20:38.060Z,9.48
2022-10-06T05:25:41.388Z,9.00
2022-10-06T05:30:56.570Z,9.65
2022-10-06T05:36:01.195Z,9.38
2022-10-06T05:41:07.734Z,8.88
2022-10-06T05:46:17.681Z,11.60
2022-10-06T05:51:25.567Z,16.65
2022-10-06T05:56:33.094Z,13.57
2022-10-06T06:01:40.975Z,6.35
2022-10-06T06:06:52.092Z,8.02
2022-10-06T06:12:03.126Z,7.03
2022-10-06T06:17:14.309Z,7.10
2022-10-06T06:22:17.834Z,6.03
2022-10-06T06:27:23.430Z,6.95
2022-10-06T06:32:28.268Z,6.38
2022-10-06T06:37:33.534Z,6.00
2022-10-06T06:42:37.871Z,5.32
2022-10-06T06:48:02.409Z,5.40
2022-10-06T06:53:06.981Z,4.40
2022-10-06T06:58:13.205Z,4.60
2022-10-06T07:03:38.428Z,4.25
2022-10-06T07:08:45.288Z,3.07
2022-10-06T07:13:53.045Z,3.53
2022-10-06T07:19:15.509Z,3.40
2022-10-06T07:24:37.791Z,4.00
2022-10-06T07:29:41.324Z,3.50
2022-10-06T07:34:46.967Z,3.63
2022-10-06T07:39:50.429Z,3.80
2022-10-06T07:45:08.133Z,4.10
2022-10-06T07:50:16.131Z,4.22
2022-10-06T07:55:19.794Z,3.97
2022-10-06T08:00:46.645Z,4.82
2022-10-06T08:05:59.869Z,5.00
2022-10-06T08:11:03.270Z,4.50
2022-10-06T08:16:07.543Z,5.30
2022-10-06T08:21:14.957Z,4.43
2022-10-06T08:26:19.988Z,4.50
2022-10-06T08:31:24.642Z,4.20
2022-10-06T08:36:31.929Z,4.20
2022-10-06T08:41:43.194Z,3.30
2022-10-06T08:46:51.841Z,3.58
2022-10-06T08:52:05.776Z,3.70
2022-10-06T08:57:15.574Z,3.63
2022-10-06T09:02:29.143Z,3.10
2022-10-06T09:07:43.996Z,3.58
2022-10-06T09:12:52.061Z,3.50
2022-10-06T09:18:00.341Z,3.40
2022-10-06T09:23:07.981Z,3.40
2022-10-06T09:28:15.890Z,3.33
2022-10-06T09:33:24.970Z,3.00
2022-10-06T09:38:48.404Z,2.92
2022-10-06T09:43:58.353Z,2.90
2022-10-06T09:49:19.575Z,2.47
2022-10-06T09:54:24.545Z,2.50
2022-10-06T09:59:39.165Z,4.90
2022-10-06T10:04:47.303Z,2.70
2022-10-06T10:10:11.176Z,2.30
2022-10-06T10:15:27.360Z,3.00
2022-10-06T10:20:35.257Z,2.60
2022-10-06T10:25:56.235Z,2.47
2022-10-06T10:31:06.166Z,2.78
2022-10-06T10:36:13.952Z,2.70
2022-10-06T10:41:23.687Z,2.70
2022-10-06T10:46:33.454Z,2.75
2022-10-06T10:51:42.464Z,3.00
2022-10-06T10:56:49.259Z,2.90
2022-10-06T11:01:57.840Z,2.70
2022-10-06T11:07:11.554Z,3.10
2022-10-06T11:12:29.438Z,3.20
2022-10-06T11:17:44.486Z,3.37
2022-10-06T11:22:54.877Z,3.15
2022-10-06T11:28:08.528Z,2.70
2022-10-06T11:33:18.630Z,2.67
2022-10-06T11:38:28.341Z,2.77
2022-10-06T11:43:42.846Z,2.10
2022-10-06T11:48:46.864Z,1.47
2022-10-06T11:53:50.337Z,1.50
2022-10-06T11:59:25.678Z,1.30
2022-10-06T12:04:29.751Z,1.13
2022-10-06T12:09:54.018Z,1.00
2022-10-06T12:16:58.207Z,1.23
2022-10-06T12:20:43.022Z,1.20
2022-10-06T12:25:52.299Z,1.20
2022-10-06T12:31:21.977Z,1.00
2022-10-06T12:36:28.378Z,1.08
2022-10-06T12:42:00.231Z,1.10
2022-10-06T12:47:11.503Z,0.90
2022-10-06T12:52:33.469Z,0.90
2022-10-06T12:57:47.903Z,1.00
2022-10-06T13:02:55.467Z,0.70
2022-10-06T13:08:00.685Z,0.80
2022-10-06T13:13:04.028Z,0.80
2022-10-06T13:18:16.018Z,0.70
2022-10-06T13:23:28.337Z,0.70
2022-10-06T13:28:47.098Z,0.60
2022-10-06T13:33:55.241Z,0.60
2022-10-06T13:38:58.842Z,0.87
2022-10-06T13:44:05.759Z,0.60
2022-10-06T13:49:20.297Z,0.88
2022-10-06T13:54:29.590Z,0.57
2022-10-06T13:59:38.573Z,0.40
2022-10-06T14:04:43.330Z,0.50
2022-10-06T14:09:51.518Z,0.60
2022-10-06T14:14:54.902Z,0.60
2022-10-06T14:19:59.827Z,0.50
2022-10-06T14:25:11.623Z,0.60
2022-10-06T14:30:15.141Z,0.60
2022-10-06T14:35:19.960Z,0.60
2022-10-06T14:40:23.266Z,0.40
2022-10-06T14:45:26.503Z,0.60
2022-10-06T14:50:31.286Z,0.60
2022-10-06T14:55:39.230Z,0.60
2022-10-06T15:00:44.737Z,0.52
2022-10-06T15:06:07.705Z,0.52
2022-10-06T15:11:14.976Z,0.43
2022-10-06T15:16:20.235Z,0.50
2022-10-06T15:21:27.004Z,0.60
2022-10-06T15:26:49.336Z,0.70
2022-10-06T15:31:55.325Z,0.60
2022-10-06T15:37:01.967Z,0.80
2022-10-06T15:42:07.164Z,0.50
2022-10-06T15:47:12.411Z,0.70
2022-10-06T15:52:19.092Z,0.70
2022-10-06T15:57:25.880Z,1.48
2022-10-06T16:02:35.738Z,2.30
2022-10-06T16:07:41.928Z,2.10
2022-10-06T16:12:46.670Z,0.70
2022-10-06T16:17:50.968Z,1.10
2022-10-06T16:22:56.138Z,1.58
2022-10-06T16:27:59.952Z,1.47
2022-10-06T16:33:03.255Z,1.67
2022-10-06T16:38:07.973Z,2.30
2022-10-06T16:43:11.258Z,2.63
2022-10-06T16:48:14.526Z,2.60
2022-10-06T16:53:20.838Z,2.78
2022-10-06T16:58:24.243Z,5.80
2022-10-06T17:03:27.568Z,8.40
2022-10-06T17:08:32.330Z,12.97
2022-10-06T17:13:36.989Z,13.25
2022-10-06T17:18:40.835Z,11.75
2022-10-06T17:23:46.158Z,14.48
2022-10-06T17:28:50.922Z,12.68
2022-10-06T17:33:54.469Z,10.73
2022-10-06T17:39:02.880Z,8.18
2022-10-06T17:44:09.169Z,7.97
2022-10-06T17:49:15.462Z,8.37
2022-10-06T17:54:22.051Z,16.48
2022-10-06T17:59:28.601Z,17.40
2022-10-06T18:04:31.998Z,7.55
2022-10-06T18:09:36.691Z,5.60
2022-10-06T18:14:39.971Z,6.03
2022-10-06T18:19:44.440Z,7.85
2022-10-06T18:24:50.474Z,6.78
2022-10-06T18:29:53.841Z,6.67
2022-10-06T18:40:24.337Z,6.30
2022-10-06T18:45:45.264Z,8.13
2022-10-06T18:51:01.135Z,8.77
2022-10-06T18:56:07.019Z,10.57
2022-10-06T19:01:11.279Z,10.90
2022-10-06T19:06:14.669Z,22.23
2022-10-06T19:11:36.894Z,11.73
2022-10-06T19:16:40.379Z,14.27
2022-10-06T19:21:45.841Z,11.03
2022-10-06T19:26:52.519Z,8.83
2022-10-06T19:32:00.355Z,6.97
2022-10-06T19:37:04.816Z,5.93
2022-10-06T19:42:29.282Z,4.60
2022-10-06T19:47:32.889Z,4.10
2022-10-06T19:52:37.636Z,3.70
2022-10-06T19:57:43.143Z,3.70
2022-10-06T20:02:48.074Z,3.72
2022-10-06T20:07:53.305Z,3.67
2022-10-06T20:13:01.035Z,4.40
2022-10-06T20:18:05.681Z,6.50
2022-10-06T20:23:09.054Z,4.60
2022-10-06T20:28:15.097Z,4.13
2022-10-06T20:33:20.042Z,3.73
2022-10-06T20:38:43.703Z,3.35
2022-10-06T20:43:49.114Z,3.90
2022-10-06T20:48:52.682Z,3.90
2022-10-06T20:53:55.941Z,4.60
2022-10-06T20:59:01.210Z,3.70
2022-10-06T21:04:04.914Z,3.25
2022-10-06T21:09:11.010Z,3.60
2022-10-06T21:14:16.729Z,3.47
2022-10-06T21:19:21.286Z,3.40
2022-10-06T21:24:24.751Z,3.63
2022-10-06T21:29:29.561Z,4.07
2022-10-06T21:34:33.332Z,3.50
2022-10-06T21:39:36.712Z,3.60
2022-10-06T21:44:41.898Z,3.53
2022-10-06T21:49:45.412Z,3.70
2022-10-06T21:54:48.816Z,3.63
2022-10-06T21:59:53.577Z,3.35
2022-10-06T22:04:56.967Z,3.45
2022-10-06T22:10:00.371Z,3.55
2022-10-06T22:15:05.535Z,3.72
2022-10-06T22:20:09.931Z,3.97
2022-10-06T22:25:13.328Z,4.15
2022-10-06T22:30:18.196Z,4.32
2022-10-06T22:35:21.600Z,5.80
2022-10-06T22:40:24.993Z,5.65
2022-10-06T22:45:29.760Z,6.40
2022-10-06T22:55:36.582Z,5.20
2022-10-06T23:00:42.741Z,5.47
2022-10-06T23:05:55.733Z,5.40
2022-10-06T23:11:05.643Z,4.97
2022-10-06T23:16:14.035Z,5.67
2022-10-06T23:21:22.123Z,5.37
2022-10-06T23:26:28.082Z,5.20
2022-10-06T23:31:33.621Z,5.22
2022-10-06T23:36:39.411Z,5.40
2022-10-06T23:41:43.251Z,5.80
2022-10-06T23:46:48.045Z,6.38
2022-10-06T23:51:51.512Z,5.47
2022-10-06T23:56:56.017Z,5.18
